Terminal Aerodrome Forecast
Issued by NWS

Home | Current Version | Previous Version | Text Only | Print | Product List | Glossary Off
Versions: 1 2 3 4 5 6 7 8 9 10 11 12 13 14 15 16 17 18 19

000
FTUS43 KMPX 011500 AAB
TAFRNH
TAF AMD
KRNH 011553Z 0116/0212 29008KT P6SM SCT015 BKN025 BKN110
     FM011730 30012G18KT P6SM SCT025 BKN110
     FM020000 28006KT P6SM SCT200
     FM020300 23003KT P6SM BKN090=

USA.gov is the U.S. government's official web portal to all federal, state and local government web resources and services.